Station Historical Data
Daily Summary for April 20, 2017 Units:  Both    English   Metric
« Previous Day
Next Day »
Daily Weekly Monthly Yearly Custom
  High: Low: Average:
Temperature: 55.4 °F /  13 °C 44.5 °F /  6.9 °C 47.9 °F /  8.8 °C
Dew Point: 52.8 °F /  11.6 °C 41.0 °F /  5 °C 45 °F /  7.2 °C
Humidity: 94% 84% 90%
Wind Speed: 16.0mph /  25.7km/h - 4.7mph /  7.6km/h
Wind Gust: 21.0mph /  33.8km/h - -
Wind- - ENE
Pressure: 30.14 in /  1020.5 hPa 29.79 in /  1008.7 hPa -
Precipitation: 0.00 in /  0 mm    
Historical Graphs
 
 
Tabular Data for April 20, 2017
Time Temperature Dew Point Pressure Wind Wind Speed Wind Gust Humidity Rainfall Rate (Hourly)
00:04 55.4 °F /  13 °C 52.8 °F /  11.6 °C 30.08in /  1018.5hPa ENE 2.0mph /  3.2km/h 6.0mph /  9.7km/h 91% 0.00in /  0mm
00:09 55.2 °F /  12.9 °C 52.6 °F /  11.4 °C 30.08in /  1018.5hPa NE 2.0mph /  3.2km/h 5.0mph /  8km/h 91% 0.00in /  0mm
00:14 55.0 °F /  12.8 °C 52.1 °F /  11.2 °C 30.08in /  1018.5hPa NE 3.0mph /  4.8km/h 6.0mph /  9.7km/h 90% 0.00in /  0mm
00:19 54.8 °F /  12.7 °C 51.9 °F /  11.1 °C 30.09in /  1018.8hPa NE 2.0mph /  3.2km/h 6.0mph /  9.7km/h 90% 0.00in /  0mm
00:24 54.6 °F /  12.6 °C 51.4 °F /  10.8 °C 30.09in /  1018.8hPa NE 2.0mph /  3.2km/h 5.0mph /  8km/h 89% 0.00in /  0mm
00:29 54.6 °F /  12.6 °C 51.1 °F /  10.6 °C 30.09in /  1018.8hPa NE 2.0mph /  3.2km/h 4.0mph /  6.4km/h 88% 0.00in /  0mm
00:34 54.4 °F /  12.4 °C 50.6 °F /  10.3 °C 30.09in /  1018.8hPa Calm   3.0mph /  4.8km/h 87% 0.00in /  0mm
00:39 54.2 °F /  12.3 °C 50.4 °F /  10.2 °C 30.09in /  1018.8hPa NE 1.0mph /  1.6km/h 3.0mph /  4.8km/h 87% 0.00in /  0mm
00:44 54.0 °F /  12.2 °C 50.2 °F /  10.1 °C 30.09in /  1018.8hPa Calm     87% 0.00in /  0mm
00:49 53.9 °F /  12.2 °C 50.1 °F /  10.1 °C 30.09in /  1018.8hPa Calm     87% 0.00in /  0mm
00:54 53.8 °F /  12.1 °C 50.0 °F /  10 °C 30.10in /  1019.2hPa Calm     87% 0.00in /  0mm
00:59 53.6 °F /  12 °C 49.8 °F /  9.9 °C 30.10in /  1019.2hPa Calm     87% 0.00in /  0mm
01:04 53.5 °F /  11.9 °C 49.7 °F /  9.8 °C 30.09in /  1018.8hPa Calm     87% 0.00in /  0mm
01:09 53.5 °F /  11.9 °C 49.7 °F /  9.8 °C 30.09in /  1018.8hPa Calm   3.0mph /  4.8km/h 87% 0.00in /  0mm
01:14 53.3 °F /  11.8 °C 49.8 °F /  9.9 °C 30.09in /  1018.8hPa NE 1.0mph /  1.6km/h 3.0mph /  4.8km/h 88% 0.00in /  0mm
01:19 53.2 °F /  11.8 °C 49.7 °F /  9.8 °C 30.09in /  1018.8hPa NE 1.0mph /  1.6km/h 3.0mph /  4.8km/h 88% 0.00in /  0mm
01:24 53.2 °F /  11.8 °C 49.7 °F /  9.8 °C 30.09in /  1018.8hPa Calm   2.0mph /  3.2km/h 88% 0.00in /  0mm
01:29 53.0 °F /  11.7 °C 49.5 °F /  9.7 °C 30.09in /  1018.8hPa NE 2.0mph /  3.2km/h 2.0mph /  3.2km/h 88% 0.00in /  0mm
01:34 52.8 °F /  11.6 °C 49.3 °F /  9.6 °C 30.09in /  1018.8hPa Calm   2.0mph /  3.2km/h 88% 0.00in /  0mm
01:39 52.7 °F /  11.5 °C 49.2 °F /  9.6 °C 30.09in /  1018.8hPa Calm   2.0mph /  3.2km/h 88% 0.00in /  0mm
01:44 52.6 °F /  11.4 °C 49.1 °F /  9.5 °C 30.09in /  1018.8hPa Calm     88% 0.00in /  0mm
01:49 52.5 °F /  11.4 °C 49.0 °F /  9.4 °C 30.09in /  1018.8hPa NE 1.0mph /  1.6km/h 3.0mph /  4.8km/h 88% 0.00in /  0mm
01:54 52.5 °F /  11.4 °C 49.0 °F /  9.4 °C 30.09in /  1018.8hPa Calm   2.0mph /  3.2km/h 88% 0.00in /  0mm
01:59 52.4 °F /  11.3 °C 48.9 °F /  9.4 °C 30.09in /  1018.8hPa Calm   4.0mph /  6.4km/h 88% 0.00in /  0mm
02:04 52.4 °F /  11.3 °C 48.9 °F /  9.4 °C 30.09in /  1018.8hPa NE 1.0mph /  1.6km/h 3.0mph /  4.8km/h 88% 0.00in /  0mm
02:09 52.3 °F /  11.3 °C 48.9 °F /  9.4 °C 30.09in /  1018.8hPa NE 1.0mph /  1.6km/h 3.0mph /  4.8km/h 88% 0.00in /  0mm
02:14 52.3 °F /  11.3 °C 48.5 °F /  9.2 °C 30.09in /  1018.8hPa NNE 2.0mph /  3.2km/h 5.0mph /  8km/h 87% 0.00in /  0mm
02:19 52.2 °F /  11.2 °C 48.4 °F /  9.1 °C 30.08in /  1018.5hPa NNE 2.0mph /  3.2km/h 5.0mph /  8km/h 87% 0.00in /  0mm
02:24 52.1 °F /  11.2 °C 48.0 °F /  8.9 °C 30.09in /  1018.8hPa NNE 2.0mph /  3.2km/h 4.0mph /  6.4km/h 86% 0.00in /  0mm
02:29 52.1 °F /  11.2 °C 48.0 °F /  8.9 °C 30.09in /  1018.8hPa North 3.0mph /  4.8km/h 4.0mph /  6.4km/h 86% 0.00in /  0mm
02:34 52.1 °F /  11.2 °C 47.7 °F /  8.7 °C 30.08in /  1018.5hPa NNE 1.0mph /  1.6km/h 3.0mph /  4.8km/h 85% 0.00in /  0mm
02:39 52.0 °F /  11.1 °C 47.9 °F /  8.8 °C 30.09in /  1018.8hPa NNE 1.0mph /  1.6km/h 3.0mph /  4.8km/h 86% 0.00in /  0mm
02:44 52.0 °F /  11.1 °C 47.9 °F /  8.8 °C 30.09in /  1018.8hPa NNE 1.0mph /  1.6km/h 3.0mph /  4.8km/h 86% 0.00in /  0mm
02:49 51.9 °F /  11.1 °C 48.2 °F /  9 °C 30.09in /  1018.8hPa NNE 1.0mph /  1.6km/h 4.0mph /  6.4km/h 87% 0.00in /  0mm
02:54 51.7 °F /  10.9 °C 48.0 °F /  8.9 °C 30.09in /  1018.8hPa NNE 1.0mph /  1.6km/h 3.0mph /  4.8km/h 87% 0.00in /  0mm
02:59 51.5 °F /  10.8 °C 47.8 °F /  8.8 °C 30.09in /  1018.8hPa NW 2.0mph /  3.2km/h 5.0mph /  8km/h 87% 0.00in /  0mm
03:04 51.4 °F /  10.8 °C 47.7 °F /  8.7 °C 30.09in /  1018.8hPa NNW 2.0mph /  3.2km/h 3.0mph /  4.8km/h 87% 0.00in /  0mm
03:09 51.4 °F /  10.8 °C 47.7 °F /  8.7 °C 30.09in /  1018.8hPa NW 2.0mph /  3.2km/h 4.0mph /  6.4km/h 87% 0.00in /  0mm
03:14 51.2 °F /  10.7 °C 47.2 °F /  8.4 °C 30.09in /  1018.8hPa North 2.0mph /  3.2km/h 5.0mph /  8km/h 86% 0.00in /  0mm
03:19 51.1 °F /  10.6 °C 47.1 °F /  8.4 °C 30.09in /  1018.8hPa NNE 4.0mph /  6.4km/h 6.0mph /  9.7km/h 86% 0.00in /  0mm
03:24 50.8 °F /  10.4 °C 46.5 °F /  8.1 °C 30.09in /  1018.8hPa NNE 2.0mph /  3.2km/h 7.0mph /  11.3km/h 85% 0.00in /  0mm
03:29 50.7 °F /  10.4 °C 46.4 °F /  8 °C 30.09in /  1018.8hPa North 5.0mph /  8km/h 7.0mph /  11.3km/h 85% 0.00in /  0mm
03:34 50.5 °F /  10.3 °C 45.8 °F /  7.7 °C 30.09in /  1018.8hPa North 5.0mph /  8km/h 10.0mph /  16.1km/h 84% 0.00in /  0mm
03:39 50.4 °F /  10.2 °C 45.7 °F /  7.6 °C 30.09in /  1018.8hPa NE 4.0mph /  6.4km/h 10.0mph /  16.1km/h 84% 0.00in /  0mm
03:44 50.2 °F /  10.1 °C 45.9 °F /  7.7 °C 30.09in /  1018.8hPa NE 5.0mph /  8km/h 12.0mph /  19.3km/h 85% 0.00in /  0mm
03:49 50.1 °F /  10.1 °C 45.8 °F /  7.7 °C 30.09in /  1018.8hPa NE 4.0mph /  6.4km/h 12.0mph /  19.3km/h 85% 0.00in /  0mm
03:54 50.1 °F /  10.1 °C 45.8 °F /  7.7 °C 30.09in /  1018.8hPa NE 4.0mph /  6.4km/h 10.0mph /  16.1km/h 85% 0.00in /  0mm
03:59 50.1 °F /  10.1 °C 46.1 °F /  7.8 °C 30.09in /  1018.8hPa ENE 7.0mph /  11.3km/h 15.0mph /  24.1km/h 86% 0.00in /  0mm
04:04 50.1 °F /  10.1 °C 46.1 °F /  7.8 °C 30.09in /  1018.8hPa NE 6.0mph /  9.7km/h 15.0mph /  24.1km/h 86% 0.00in /  0mm
04:09 50.1 °F /  10.1 °C 46.1 °F /  7.8 °C 30.10in /  1019.2hPa NNE 4.0mph /  6.4km/h 10.0mph /  16.1km/h 86% 0.00in /  0mm
04:14 50.1 °F /  10.1 °C 46.4 °F /  8 °C 30.10in /  1019.2hPa NE 8.0mph /  12.9km/h 14.0mph /  22.5km/h 87% 0.00in /  0mm
04:19 50.1 °F /  10.1 °C 46.4 °F /  8 °C 30.10in /  1019.2hPa NE 10.0mph /  16.1km/h 15.0mph /  24.1km/h 87% 0.00in /  0mm
04:24 50.1 °F /  10.1 °C 46.4 °F /  8 °C 30.10in /  1019.2hPa NE 3.0mph /  4.8km/h 12.0mph /  19.3km/h 87% 0.00in /  0mm
04:29 50.0 °F /  10 °C 46.3 °F /  7.9 °C 30.10in /  1019.2hPa NE 7.0mph /  11.3km/h 21.0mph /  33.8km/h 87% 0.00in /  0mm
04:34 49.9 °F /  9.9 °C 46.2 °F /  7.9 °C 30.10in /  1019.2hPa NE 7.0mph /  11.3km/h 21.0mph /  33.8km/h 87% 0.00in /  0mm
04:39 49.8 °F /  9.9 °C 46.1 °F /  7.8 °C 30.10in /  1019.2hPa NE 8.0mph /  12.9km/h 16.0mph /  25.7km/h 87% 0.00in /  0mm
04:44 49.7 °F /  9.8 °C 46.0 °F /  7.8 °C 30.10in /  1019.2hPa NE 8.0mph /  12.9km/h 17.0mph /  27.4km/h 87% 0.00in /  0mm
04:49 49.6 °F /  9.8 °C 45.9 °F /  7.7 °C 30.10in /  1019.2hPa NE 8.0mph /  12.9km/h 17.0mph /  27.4km/h 87% 0.00in /  0mm
04:54 49.6 °F /  9.8 °C 46.2 °F /  7.9 °C 30.10in /  1019.2hPa ENE 7.0mph /  11.3km/h 10.0mph /  16.1km/h 88% 0.00in /  0mm
04:59 49.6 °F /  9.8 °C 46.2 °F /  7.9 °C 30.10in /  1019.2hPa NE 8.0mph /  12.9km/h 11.0mph /  17.7km/h 88% 0.00in /  0mm
05:04 49.6 °F /  9.8 °C 46.2 °F /  7.9 °C 30.10in /  1019.2hPa NE 5.0mph /  8km/h 11.0mph /  17.7km/h 88% 0.00in /  0mm
05:09 49.6 °F /  9.8 °C 46.2 °F /  7.9 °C 30.10in /  1019.2hPa NE 5.0mph /  8km/h 10.0mph /  16.1km/h 88% 0.00in /  0mm
05:14 49.4 °F /  9.7 °C 46.0 °F /  7.8 °C 30.11in /  1019.5hPa NE 5.0mph /  8km/h 12.0mph /  19.3km/h 88% 0.00in /  0mm
05:19 49.3 °F /  9.6 °C 45.9 °F /  7.7 °C 30.11in /  1019.5hPa NE 5.0mph /  8km/h 12.0mph /  19.3km/h 88% 0.00in /  0mm
05:24 49.3 °F /  9.6 °C 45.9 °F /  7.7 °C 30.11in /  1019.5hPa NE 5.0mph /  8km/h 12.0mph /  19.3km/h 88% 0.00in /  0mm
05:29 49.2 °F /  9.6 °C 45.8 °F /  7.7 °C 30.11in /  1019.5hPa NE 6.0mph /  9.7km/h 12.0mph /  19.3km/h 88% 0.00in /  0mm
05:34 49.1 °F /  9.5 °C 46.0 °F /  7.8 °C 30.11in /  1019.5hPa NE 7.0mph /  11.3km/h 12.0mph /  19.3km/h 89% 0.00in /  0mm
05:39 48.9 °F /  9.4 °C 45.8 °F /  7.7 °C 30.10in /  1019.2hPa NE 6.0mph /  9.7km/h 8.0mph /  12.9km/h 89% 0.00in /  0mm
05:44 48.8 °F /  9.3 °C 45.7 °F /  7.6 °C 30.10in /  1019.2hPa NE 4.0mph /  6.4km/h 11.0mph /  17.7km/h 89% 0.00in /  0mm
05:49 48.7 °F /  9.3 °C 45.6 °F /  7.6 °C 30.11in /  1019.5hPa NE 5.0mph /  8km/h 16.0mph /  25.7km/h 89% 0.00in /  0mm
05:54 48.5 °F /  9.2 °C 45.4 °F /  7.4 °C 30.11in /  1019.5hPa NNE 7.0mph /  11.3km/h 11.0mph /  17.7km/h 89% 0.00in /  0mm
05:59 48.4 °F /  9.1 °C 45.6 °F /  7.6 °C 30.12in /  1019.9hPa NNW 8.0mph /  12.9km/h 12.0mph /  19.3km/h 90% 0.00in /  0mm
06:04 48.3 °F /  9.1 °C 45.5 °F /  7.5 °C 30.11in /  1019.5hPa NE 6.0mph /  9.7km/h 13.0mph /  20.9km/h 90% 0.00in /  0mm
06:09 48.1 °F /  8.9 °C 45.3 °F /  7.4 °C 30.10in /  1019.2hPa NE 7.0mph /  11.3km/h 14.0mph /  22.5km/h 90% 0.00in /  0mm
06:14 47.8 °F /  8.8 °C 45.0 °F /  7.2 °C 30.11in /  1019.5hPa NE 8.0mph /  12.9km/h 12.0mph /  19.3km/h 90% 0.00in /  0mm
06:19 47.6 °F /  8.7 °C 44.8 °F /  7.1 °C 30.11in /  1019.5hPa NNE 3.0mph /  4.8km/h 14.0mph /  22.5km/h 90% 0.00in /  0mm
06:24 47.5 °F /  8.6 °C 44.7 °F /  7.1 °C 30.12in /  1019.9hPa NE 2.0mph /  3.2km/h 8.0mph /  12.9km/h 90% 0.00in /  0mm
06:29 47.4 °F /  8.6 °C 44.6 °F /  7 °C 30.12in /  1019.9hPa NE 4.0mph /  6.4km/h 8.0mph /  12.9km/h 90% 0.00in /  0mm
06:34 47.4 °F /  8.6 °C 44.6 °F /  7 °C 30.11in /  1019.5hPa NE 5.0mph /  8km/h 12.0mph /  19.3km/h 90% 0.00in /  0mm
06:39 47.2 °F /  8.4 °C 44.4 °F /  6.9 °C 30.11in /  1019.5hPa NE 6.0mph /  9.7km/h 15.0mph /  24.1km/h 90% 0.00in /  0mm
06:44 46.9 °F /  8.3 °C 44.1 °F /  6.7 °C 30.11in /  1019.5hPa NE 7.0mph /  11.3km/h 15.0mph /  24.1km/h 90% 0.00in /  0mm
06:49 46.7 °F /  8.2 °C 43.9 °F /  6.6 °C 30.12in /  1019.9hPa ENE 4.0mph /  6.4km/h 16.0mph /  25.7km/h 90% 0.00in /  0mm
06:54 46.5 °F /  8.1 °C 44.0 °F /  6.7 °C 30.11in /  1019.5hPa NE 8.0mph /  12.9km/h 15.0mph /  24.1km/h 91% 0.00in /  0mm
06:59 46.3 °F /  7.9 °C 43.8 °F /  6.6 °C 30.12in /  1019.9hPa NE 8.0mph /  12.9km/h 15.0mph /  24.1km/h 91% 0.00in /  0mm
07:04 46.0 °F /  7.8 °C 43.2 °F /  6.2 °C 30.12in /  1019.9hPa ENE 8.0mph /  12.9km/h 17.0mph /  27.4km/h 90% 0.00in /  0mm
07:09 45.7 °F /  7.6 °C 42.9 °F /  6.1 °C 30.11in /  1019.5hPa NE 7.0mph /  11.3km/h 17.0mph /  27.4km/h 90% 0.00in /  0mm
07:14 45.4 °F /  7.4 °C 42.6 °F /  5.9 °C 30.11in /  1019.5hPa NE 5.0mph /  8km/h 15.0mph /  24.1km/h 90% 0.00in /  0mm
07:19 45.3 °F /  7.4 °C 42.8 °F /  6 °C 30.11in /  1019.5hPa NE 8.0mph /  12.9km/h 14.0mph /  22.5km/h 91% 0.00in /  0mm
07:24 45.2 °F /  7.3 °C 42.7 °F /  5.9 °C 30.11in /  1019.5hPa NE 8.0mph /  12.9km/h 14.0mph /  22.5km/h 91% 0.00in /  0mm
07:29 45.0 °F /  7.2 °C 42.5 °F /  5.8 °C 30.11in /  1019.5hPa NE 8.0mph /  12.9km/h 14.0mph /  22.5km/h 91% 0.00in /  0mm
07:34 45.0 °F /  7.2 °C 42.5 °F /  5.8 °C 30.11in /  1019.5hPa NE 8.0mph /  12.9km/h 14.0mph /  22.5km/h 91% 0.00in /  0mm
07:39 45.0 °F /  7.2 °C 42.5 °F /  5.8 °C 30.11in /  1019.5hPa ENE 7.0mph /  11.3km/h 17.0mph /  27.4km/h 91% 0.00in /  0mm
07:44 44.8 °F /  7.1 °C 42.3 °F /  5.7 °C 30.11in /  1019.5hPa ENE 7.0mph /  11.3km/h 17.0mph /  27.4km/h 91% 0.00in /  0mm
07:49 44.7 °F /  7.1 °C 42.2 °F /  5.7 °C 30.11in /  1019.5hPa NE 7.0mph /  11.3km/h 16.0mph /  25.7km/h 91% 0.00in /  0mm
07:54 44.6 °F /  7 °C 42.1 °F /  5.6 °C 30.12in /  1019.9hPa NE 9.0mph /  14.5km/h 9.0mph /  14.5km/h 91% 0.00in /  0mm
07:59 44.5 °F /  6.9 °C 42.0 °F /  5.6 °C 30.12in /  1019.9hPa East 8.0mph /  12.9km/h 13.0mph /  20.9km/h 91% 0.00in /  0mm
08:04 44.5 °F /  6.9 °C 42.0 °F /  5.6 °C 30.12in /  1019.9hPa NE 8.0mph /  12.9km/h 13.0mph /  20.9km/h 91% 0.00in /  0mm
08:09 44.6 °F /  7 °C 42.1 °F /  5.6 °C 30.12in /  1019.9hPa East 2.0mph /  3.2km/h 12.0mph /  19.3km/h 91% 0.00in /  0mm
08:14 44.7 °F /  7.1 °C 42.2 °F /  5.7 °C 30.12in /  1019.9hPa ENE 5.0mph /  8km/h 12.0mph /  19.3km/h 91% 0.00in /  0mm
08:19 44.8 °F /  7.1 °C 42.3 °F /  5.7 °C 30.13in /  1020.2hPa NE 6.0mph /  9.7km/h 13.0mph /  20.9km/h 91% 0.00in /  0mm
08:24 45.0 °F /  7.2 °C 42.5 °F /  5.8 °C 30.13in /  1020.2hPa ENE 5.0mph /  8km/h 13.0mph /  20.9km/h 91% 0.00in /  0mm
08:29 44.8 °F /  7.1 °C 42.0 °F /  5.6 °C 30.14in /  1020.5hPa ENE 5.0mph /  8km/h 11.0mph /  17.7km/h 90% 0.00in /  0mm
08:34 44.8 °F /  7.1 °C 42.0 °F /  5.6 °C 30.14in /  1020.5hPa ENE 6.0mph /  9.7km/h 11.0mph /  17.7km/h 90% 0.00in /  0mm
08:39 44.9 °F /  7.2 °C 42.1 °F /  5.6 °C 30.14in /  1020.5hPa ENE 6.0mph /  9.7km/h 12.0mph /  19.3km/h 90% 0.00in /  0mm
08:44 44.9 °F /  7.2 °C 41.9 °F /  5.5 °C 30.13in /  1020.2hPa East 6.0mph /  9.7km/h 13.0mph /  20.9km/h 89% 0.00in /  0mm
08:49 44.9 °F /  7.2 °C 41.9 °F /  5.5 °C 30.12in /  1019.9hPa East 5.0mph /  8km/h 11.0mph /  17.7km/h 89% 0.00in /  0mm
08:54 45.0 °F /  7.2 °C 42.0 °F /  5.6 °C 30.13in /  1020.2hPa East 6.0mph /  9.7km/h 14.0mph /  22.5km/h 89% 0.00in /  0mm
08:59 44.9 °F /  7.2 °C 41.6 °F /  5.3 °C 30.12in /  1019.9hPa East 6.0mph /  9.7km/h 16.0mph /  25.7km/h 88% 0.00in /  0mm
09:04 44.7 °F /  7.1 °C 41.4 °F /  5.2 °C 30.12in /  1019.9hPa ENE 7.0mph /  11.3km/h 16.0mph /  25.7km/h 88% 0.00in /  0mm
09:09 44.6 °F /  7 °C 41.3 °F /  5.2 °C 30.12in /  1019.9hPa ENE 8.0mph /  12.9km/h 13.0mph /  20.9km/h 88% 0.00in /  0mm
09:14 44.6 °F /  7 °C 41.3 °F /  5.2 °C 30.12in /  1019.9hPa NE 4.0mph /  6.4km/h 12.0mph /  19.3km/h 88% 0.00in /  0mm
09:19 44.8 °F /  7.1 °C 41.2 °F /  5.1 °C 30.11in /  1019.5hPa ENE 7.0mph /  11.3km/h 13.0mph /  20.9km/h 87% 0.00in /  0mm
09:24 44.8 °F /  7.1 °C 41.2 °F /  5.1 °C 30.11in /  1019.5hPa ENE 7.0mph /  11.3km/h 13.0mph /  20.9km/h 87% 0.00in /  0mm
09:29 44.6 °F /  7 °C 41.0 °F /  5 °C 30.11in /  1019.5hPa ENE 5.0mph /  8km/h 14.0mph /  22.5km/h 87% 0.00in /  0mm
09:34 44.7 °F /  7.1 °C 41.1 °F /  5.1 °C 30.11in /  1019.5hPa NE 4.0mph /  6.4km/h 13.0mph /  20.9km/h 87% 0.00in /  0mm
09:39 44.8 °F /  7.1 °C 41.2 °F /  5.1 °C 30.12in /  1019.9hPa East 9.0mph /  14.5km/h 13.0mph /  20.9km/h 87% 0.00in /  0mm
09:44 45.1 °F /  7.3 °C 41.5 °F /  5.3 °C 30.12in /  1019.9hPa ENE 11.0mph /  17.7km/h 11.0mph /  17.7km/h 87% 0.00in /  0mm
09:49 45.2 °F /  7.3 °C 41.3 °F /  5.2 °C 30.12in /  1019.9hPa ESE 8.0mph /  12.9km/h 14.0mph /  22.5km/h 86% 0.00in /  0mm
09:54 45.1 °F /  7.3 °C 41.2 °F /  5.1 °C 30.11in /  1019.5hPa East 7.0mph /  11.3km/h 14.0mph /  22.5km/h 86% 0.00in /  0mm
09:59 44.9 °F /  7.2 °C 41.0 °F /  5 °C 30.12in /  1019.9hPa East 7.0mph /  11.3km/h 15.0mph /  24.1km/h 86% 0.00in /  0mm
10:04 45.2 °F /  7.3 °C 41.3 °F /  5.2 °C 30.13in /  1020.2hPa East 11.0mph /  17.7km/h 11.0mph /  17.7km/h 86% 0.00in /  0mm
10:09 45.1 °F /  7.3 °C 41.2 °F /  5.1 °C 30.12in /  1019.9hPa ENE 3.0mph /  4.8km/h 11.0mph /  17.7km/h 86% 0.00in /  0mm
10:14 45.2 °F /  7.3 °C 41.6 °F /  5.3 °C 30.12in /  1019.9hPa East 8.0mph /  12.9km/h 13.0mph /  20.9km/h 87% 0.00in /  0mm
10:19 45.2 °F /  7.3 °C 41.3 °F /  5.2 °C 30.12in /  1019.9hPa NE 10.0mph /  16.1km/h 12.0mph /  19.3km/h 86% 0.00in /  0mm
10:24 45.2 °F /  7.3 °C 41.3 °F /  5.2 °C 30.11in /  1019.5hPa ENE 6.0mph /  9.7km/h 15.0mph /  24.1km/h 86% 0.00in /  0mm
10:29 45.4 °F /  7.4 °C 41.8 °F /  5.4 °C 30.11in /  1019.5hPa ENE 6.0mph /  9.7km/h 15.0mph /  24.1km/h 87% 0.00in /  0mm
10:34 45.7 °F /  7.6 °C 41.8 °F /  5.4 °C 30.11in /  1019.5hPa ENE 3.0mph /  4.8km/h 14.0mph /  22.5km/h 86% 0.00in /  0mm
10:39 45.9 °F /  7.7 °C 41.9 °F /  5.5 °C 30.11in /  1019.5hPa East 7.0mph /  11.3km/h 13.0mph /  20.9km/h 86% 0.00in /  0mm
10:44 46.0 °F /  7.8 °C 42.0 °F /  5.6 °C 30.11in /  1019.5hPa ENE 7.0mph /  11.3km/h 11.0mph /  17.7km/h 86% 0.00in /  0mm
10:49 45.9 °F /  7.7 °C 41.6 °F /  5.3 °C 30.11in /  1019.5hPa NE 12.0mph /  19.3km/h 13.0mph /  20.9km/h 85% 0.00in /  0mm
10:54 46.0 °F /  7.8 °C 41.7 °F /  5.4 °C 30.12in /  1019.9hPa NE 7.0mph /  11.3km/h 14.0mph /  22.5km/h 85% 0.00in /  0mm
10:59 46.0 °F /  7.8 °C 41.7 °F /  5.4 °C 30.12in /  1019.9hPa NE 8.0mph /  12.9km/h 14.0mph /  22.5km/h 85% 0.00in /  0mm
11:04 46.0 °F /  7.8 °C 41.7 °F /  5.4 °C 30.12in /  1019.9hPa NE 8.0mph /  12.9km/h 16.0mph /  25.7km/h 85% 0.00in /  0mm
11:09 45.8 °F /  7.7 °C 41.5 °F /  5.3 °C 30.12in /  1019.9hPa NE 8.0mph /  12.9km/h 16.0mph /  25.7km/h 85% 0.00in /  0mm
11:14 45.8 °F /  7.7 °C 41.5 °F /  5.3 °C 30.12in /  1019.9hPa NE 9.0mph /  14.5km/h 16.0mph /  25.7km/h 85% 0.00in /  0mm
11:19 45.7 °F /  7.6 °C 41.4 °F /  5.2 °C 30.10in /  1019.2hPa NE 11.0mph /  17.7km/h 18.0mph /  29km/h 85% 0.00in /  0mm
11:24 45.7 °F /  7.6 °C 41.4 °F /  5.2 °C 30.09in /  1018.8hPa NE 9.0mph /  14.5km/h 18.0mph /  29km/h 85% 0.00in /  0mm
11:29 45.7 °F /  7.6 °C 41.4 °F /  5.2 °C 30.09in /  1018.8hPa ENE 5.0mph /  8km/h 15.0mph /  24.1km/h 85% 0.00in /  0mm
11:34 45.7 °F /  7.6 °C 41.4 °F /  5.2 °C 30.08in /  1018.5hPa East 7.0mph /  11.3km/h 18.0mph /  29km/h 85% 0.00in /  0mm
11:39 45.7 °F /  7.6 °C 41.4 °F /  5.2 °C 30.08in /  1018.5hPa NE 8.0mph /  12.9km/h 20.0mph /  32.2km/h 85% 0.00in /  0mm
11:44 45.6 °F /  7.6 °C 41.4 °F /  5.2 °C 30.08in /  1018.5hPa NE 4.0mph /  6.4km/h 18.0mph /  29km/h 85% 0.00in /  0mm
11:49 45.6 °F /  7.6 °C 41.4 °F /  5.2 °C 30.07in /  1018.2hPa NE 10.0mph /  16.1km/h 18.0mph /  29km/h 85% 0.00in /  0mm
11:54 45.6 °F /  7.6 °C 41.4 °F /  5.2 °C 30.08in /  1018.5hPa ENE 8.0mph /  12.9km/h 15.0mph /  24.1km/h 85% 0.00in /  0mm
11:59 45.5 °F /  7.5 °C 41.6 °F /  5.3 °C 30.08in /  1018.5hPa ENE 7.0mph /  11.3km/h 18.0mph /  29km/h 86% 0.02in /  0.51mm
12:04 45.2 °F /  7.3 °C 41.6 °F /  5.3 °C 30.09in /  1018.8hPa NE 7.0mph /  11.3km/h 18.0mph /  29km/h 87% 0.03in /  0.76mm
12:09 45.0 °F /  7.2 °C 41.4 °F /  5.2 °C 30.09in /  1018.8hPa NE 9.0mph /  14.5km/h 16.0mph /  25.7km/h 87% 0.03in /  0.76mm
12:14 45.0 °F /  7.2 °C 41.7 °F /  5.4 °C 30.07in /  1018.2hPa East 8.0mph /  12.9km/h 12.0mph /  19.3km/h 88% 0.05in /  1.27mm
12:19 45.0 °F /  7.2 °C 41.7 °F /  5.4 °C 30.08in /  1018.5hPa ENE 7.0mph /  11.3km/h 13.0mph /  20.9km/h 88% 0.06in /  1.52mm
12:24 44.9 °F /  7.2 °C 41.9 °F /  5.5 °C 30.08in /  1018.5hPa NE 9.0mph /  14.5km/h 17.0mph /  27.4km/h 89% 0.06in /  1.52mm
12:29 44.7 °F /  7.1 °C 41.7 °F /  5.4 °C 30.08in /  1018.5hPa NE 4.0mph /  6.4km/h 14.0mph /  22.5km/h 89% 0.06in /  1.52mm
12:34 44.5 °F /  6.9 °C 41.5 °F /  5.3 °C 30.07in /  1018.2hPa NE 6.0mph /  9.7km/h 13.0mph /  20.9km/h 89% 0.08in /  2.03mm
12:39 44.6 °F /  7 °C 41.8 °F /  5.4 °C 30.06in /  1017.8hPa East 7.0mph /  11.3km/h 10.0mph /  16.1km/h 90% 0.11in /  2.79mm
12:44 44.6 °F /  7 °C 41.8 °F /  5.4 °C 30.06in /  1017.8hPa NE 4.0mph /  6.4km/h 12.0mph /  19.3km/h 90% 0.13in /  3.3mm
12:49 44.6 °F /  7 °C 41.8 °F /  5.4 °C 30.05in /  1017.5hPa ENE 6.0mph /  9.7km/h 14.0mph /  22.5km/h 90% 0.14in /  3.56mm
12:54 44.6 °F /  7 °C 41.8 °F /  5.4 °C 30.04in /  1017.2hPa ENE 7.0mph /  11.3km/h 16.0mph /  25.7km/h 90% 0.15in /  3.81mm
12:59 44.6 °F /  7 °C 41.8 °F /  5.4 °C 30.03in /  1016.8hPa ENE 7.0mph /  11.3km/h 16.0mph /  25.7km/h 90% 0.13in /  3.3mm
13:04 44.6 °F /  7 °C 41.8 °F /  5.4 °C 30.03in /  1016.8hPa ENE 9.0mph /  14.5km/h 15.0mph /  24.1km/h 90% 0.12in /  3.05mm
13:09 44.7 °F /  7.1 °C 41.9 °F /  5.5 °C 30.03in /  1016.8hPa ESE 9.0mph /  14.5km/h 19.0mph /  30.6km/h 90% 0.12in /  3.05mm
13:14 44.6 °F /  7 °C 41.8 °F /  5.4 °C 30.03in /  1016.8hPa ENE 8.0mph /  12.9km/h 19.0mph /  30.6km/h 90% 0.10in /  2.54mm
13:19 44.7 °F /  7.1 °C 41.9 °F /  5.5 °C 30.03in /  1016.8hPa ENE 7.0mph /  11.3km/h 14.0mph /  22.5km/h 90% 0.09in /  2.29mm
13:24 44.7 °F /  7.1 °C 41.9 °F /  5.5 °C 30.03in /  1016.8hPa ENE 7.0mph /  11.3km/h 16.0mph /  25.7km/h 90% 0.09in /  2.29mm
13:29 44.6 °F /  7 °C 41.8 °F /  5.4 °C 30.03in /  1016.8hPa ENE 9.0mph /  14.5km/h 15.0mph /  24.1km/h 90% 0.09in /  2.29mm
13:34 44.6 °F /  7 °C 41.8 °F /  5.4 °C 30.03in /  1016.8hPa NE 5.0mph /  8km/h 13.0mph /  20.9km/h 90% 0.07in /  1.78mm
13:39 44.8 °F /  7.1 °C 42.0 °F /  5.6 °C 30.03in /  1016.8hPa NE 9.0mph /  14.5km/h 15.0mph /  24.1km/h 90% 0.04in /  1.02mm
13:44 44.7 °F /  7.1 °C 41.9 °F /  5.5 °C 30.03in /  1016.8hPa ENE 7.0mph /  11.3km/h 15.0mph /  24.1km/h 90% 0.02in /  0.51mm
13:49 44.9 °F /  7.2 °C 42.1 °F /  5.6 °C 30.02in /  1016.5hPa NE 8.0mph /  12.9km/h 11.0mph /  17.7km/h 90% 0.01in /  0.25mm
13:54 45.0 °F /  7.2 °C 42.2 °F /  5.7 °C 30.01in /  1016.1hPa NE 12.0mph /  19.3km/h 14.0mph /  22.5km/h 90% 0.00in /  0mm
13:59 44.9 °F /  7.2 °C 42.1 °F /  5.6 °C 30.01in /  1016.1hPa ENE 3.0mph /  4.8km/h 14.0mph /  22.5km/h 90% 0.00in /  0mm
14:04 45.0 °F /  7.2 °C 42.2 °F /  5.7 °C 30.01in /  1016.1hPa ENE 9.0mph /  14.5km/h 15.0mph /  24.1km/h 90% 0.01in /  0.25mm
14:09 44.9 °F /  7.2 °C 42.1 °F /  5.6 °C 30.01in /  1016.1hPa NE 5.0mph /  8km/h 10.0mph /  16.1km/h 90% 0.02in /  0.51mm
14:14 44.9 °F /  7.2 °C 42.1 °F /  5.6 °C 30.01in /  1016.1hPa ENE 6.0mph /  9.7km/h 13.0mph /  20.9km/h 90% 0.04in /  1.02mm
14:19 44.7 °F /  7.1 °C 41.9 °F /  5.5 °C 30.00in /  1015.8hPa East 5.0mph /  8km/h 13.0mph /  20.9km/h 90% 0.12in /  3.05mm
14:24 44.6 °F /  7 °C 41.8 °F /  5.4 °C 30.01in /  1016.1hPa East 5.0mph /  8km/h 13.0mph /  20.9km/h 90% 0.16in /  4.06mm
14:29 44.6 °F /  7 °C 41.8 °F /  5.4 °C 30.00in /  1015.8hPa East 6.0mph /  9.7km/h 11.0mph /  17.7km/h 90% 0.22in /  5.59mm
14:34 44.6 °F /  7 °C 42.1 °F /  5.6 °C 30.00in /  1015.8hPa East 5.0mph /  8km/h 9.0mph /  14.5km/h 91% 0.26in /  6.6mm
14:39 44.7 °F /  7.1 °C 42.2 °F /  5.7 °C 29.99in /  1015.5hPa East 5.0mph /  8km/h 11.0mph /  17.7km/h 91% 0.30in /  7.62mm
14:44 44.8 °F /  7.1 °C 42.3 °F /  5.7 °C 29.98in /  1015.1hPa East 6.0mph /  9.7km/h 15.0mph /  24.1km/h 91% 0.31in /  7.87mm
14:49 44.9 °F /  7.2 °C 42.4 °F /  5.8 °C 29.98in /  1015.1hPa East 6.0mph /  9.7km/h 15.0mph /  24.1km/h 91% 0.32in /  8.13mm
14:54 45.1 °F /  7.3 °C 42.6 °F /  5.9 °C 29.98in /  1015.1hPa ENE 6.0mph /  9.7km/h 13.0mph /  20.9km/h 91% 0.33in /  8.38mm
14:59 45.3 °F /  7.4 °C 43.1 °F /  6.2 °C 29.97in /  1014.8hPa East 7.0mph /  11.3km/h 11.0mph /  17.7km/h 92% 0.34in /  8.64mm
15:04 45.2 °F /  7.3 °C 42.7 °F /  5.9 °C 29.97in /  1014.8hPa ENE 6.0mph /  9.7km/h 13.0mph /  20.9km/h 91% 0.35in /  8.89mm
15:09 45.2 °F /  7.3 °C 42.7 °F /  5.9 °C 29.97in /  1014.8hPa ESE 4.0mph /  6.4km/h 13.0mph /  20.9km/h 91% 0.36in /  9.14mm
15:14 45.2 °F /  7.3 °C 42.7 °F /  5.9 °C 29.95in /  1014.1hPa ENE 4.0mph /  6.4km/h 10.0mph /  16.1km/h 91% 0.36in /  9.14mm
15:19 45.4 °F /  7.4 °C 43.2 °F /  6.2 °C 29.94in /  1013.8hPa ENE 4.0mph /  6.4km/h 9.0mph /  14.5km/h 92% 0.30in /  7.62mm
15:24 45.7 °F /  7.6 °C 43.5 °F /  6.4 °C 29.94in /  1013.8hPa East 2.0mph /  3.2km/h 14.0mph /  22.5km/h 92% 0.27in /  6.86mm
15:29 45.7 °F /  7.6 °C 43.5 °F /  6.4 °C 29.95in /  1014.1hPa ENE 4.0mph /  6.4km/h 10.0mph /  16.1km/h 92% 0.21in /  5.33mm
15:34 45.8 °F /  7.7 °C 43.6 °F /  6.4 °C 29.95in /  1014.1hPa ENE 5.0mph /  8km/h 10.0mph /  16.1km/h 92% 0.17in /  4.32mm
15:39 45.9 °F /  7.7 °C 43.7 °F /  6.5 °C 29.95in /  1014.1hPa East 4.0mph /  6.4km/h 8.0mph /  12.9km/h 92% 0.14in /  3.56mm
15:44 46.2 °F /  7.9 °C 44.0 °F /  6.7 °C 29.94in /  1013.8hPa East 4.0mph /  6.4km/h 9.0mph /  14.5km/h 92% 0.14in /  3.56mm
15:49 46.4 °F /  8 °C 44.2 °F /  6.8 °C 29.92in /  1013.1hPa East 5.0mph /  8km/h 17.0mph /  27.4km/h 92% 0.15in /  3.81mm
15:54 46.5 °F /  8.1 °C 44.3 °F /  6.8 °C 29.91in /  1012.8hPa SE 5.0mph /  8km/h 13.0mph /  20.9km/h 92% 0.16in /  4.06mm
15:59 46.6 °F /  8.1 °C 44.1 °F /  6.7 °C 29.91in /  1012.8hPa SE 5.0mph /  8km/h 13.0mph /  20.9km/h 91% 0.16in /  4.06mm
16:04 46.7 °F /  8.2 °C 44.5 °F /  6.9 °C 29.91in /  1012.8hPa East 6.0mph /  9.7km/h 13.0mph /  20.9km/h 92% 0.14in /  3.56mm
16:09 46.9 °F /  8.3 °C 44.7 °F /  7.1 °C 29.92in /  1013.1hPa East 3.0mph /  4.8km/h 11.0mph /  17.7km/h 92% 0.13in /  3.3mm
16:14 47.2 °F /  8.4 °C 45.0 °F /  7.2 °C 29.91in /  1012.8hPa NE 6.0mph /  9.7km/h 10.0mph /  16.1km/h 92% 0.11in /  2.79mm
16:19 47.6 °F /  8.7 °C 45.1 °F /  7.3 °C 29.90in /  1012.4hPa East 6.0mph /  9.7km/h 11.0mph /  17.7km/h 91% 0.09in /  2.29mm
16:24 48.1 °F /  8.9 °C 45.9 °F /  7.7 °C 29.91in /  1012.8hPa NE 6.0mph /  9.7km/h 13.0mph /  20.9km/h 92% 0.08in /  2.03mm
16:29 48.4 °F /  9.1 °C 45.9 °F /  7.7 °C 29.91in /  1012.8hPa ENE 4.0mph /  6.4km/h 13.0mph /  20.9km/h 91% 0.08in /  2.03mm
16:34 48.6 °F /  9.2 °C 46.1 °F /  7.8 °C 29.91in /  1012.8hPa NE 6.0mph /  9.7km/h 13.0mph /  20.9km/h 91% 0.08in /  2.03mm
16:39 48.5 °F /  9.2 °C 46.0 °F /  7.8 °C 29.91in /  1012.8hPa NE 6.0mph /  9.7km/h 13.0mph /  20.9km/h 91% 0.07in /  1.78mm
16:44 48.3 °F /  9.1 °C 45.8 °F /  7.7 °C 29.91in /  1012.8hPa NE 6.0mph /  9.7km/h 13.0mph /  20.9km/h 91% 0.06in /  1.52mm
16:49 48.1 °F /  8.9 °C 45.3 °F /  7.4 °C 29.91in /  1012.8hPa NE 7.0mph /  11.3km/h 13.0mph /  20.9km/h 90% 0.05in /  1.27mm
16:54 47.9 °F /  8.8 °C 45.1 °F /  7.3 °C 29.91in /  1012.8hPa NE 6.0mph /  9.7km/h 12.0mph /  19.3km/h 90% 0.04in /  1.02mm
16:59 47.7 °F /  8.7 °C 45.2 °F /  7.3 °C 29.91in /  1012.8hPa ESE 3.0mph /  4.8km/h 9.0mph /  14.5km/h 91% 0.05in /  1.27mm
17:04 47.6 °F /  8.7 °C 45.1 °F /  7.3 °C 29.91in /  1012.8hPa NE 4.0mph /  6.4km/h 11.0mph /  17.7km/h 91% 0.06in /  1.52mm
17:09 47.4 °F /  8.6 °C 44.9 °F /  7.2 °C 29.92in /  1013.1hPa NE 5.0mph /  8km/h 9.0mph /  14.5km/h 91% 0.08in /  2.03mm
17:14 47.2 °F /  8.4 °C 44.7 °F /  7.1 °C 29.89in /  1012.1hPa East 6.0mph /  9.7km/h 14.0mph /  22.5km/h 91% 0.19in /  4.83mm
17:19 47.0 °F /  8.3 °C 44.5 °F /  6.9 °C 29.90in /  1012.4hPa ENE 4.0mph /  6.4km/h 11.0mph /  17.7km/h 91% 0.24in /  6.1mm
17:24 47.0 °F /  8.3 °C 44.8 °F /  7.1 °C 29.89in /  1012.1hPa ESE 3.0mph /  4.8km/h 9.0mph /  14.5km/h 92% 0.33in /  8.38mm
17:29 47.3 °F /  8.5 °C 45.1 °F /  7.3 °C 29.89in /  1012.1hPa ESE 4.0mph /  6.4km/h 9.0mph /  14.5km/h 92% 0.37in /  9.4mm
17:34 47.5 °F /  8.6 °C 45.3 °F /  7.4 °C 29.87in /  1011.4hPa ESE 4.0mph /  6.4km/h 9.0mph /  14.5km/h 92% 0.43in /  10.92mm
17:39 47.8 °F /  8.8 °C 45.6 °F /  7.6 °C 29.88in /  1011.7hPa East 3.0mph /  4.8km/h 10.0mph /  16.1km/h 92% 0.47in /  11.94mm
17:44 48.0 °F /  8.9 °C 45.8 °F /  7.7 °C 29.87in /  1011.4hPa ENE 4.0mph /  6.4km/h 9.0mph /  14.5km/h 92% 0.50in /  12.7mm
17:49 48.3 °F /  9.1 °C 46.4 °F /  8 °C 29.87in /  1011.4hPa ENE 2.0mph /  3.2km/h 8.0mph /  12.9km/h 93% 0.50in /  12.7mm
17:54 48.5 °F /  9.2 °C 46.6 °F /  8.1 °C 29.87in /  1011.4hPa East 3.0mph /  4.8km/h 9.0mph /  14.5km/h 93% 0.49in /  12.45mm
17:59 48.7 °F /  9.3 °C 46.8 °F /  8.2 °C 29.87in /  1011.4hPa ENE 4.0mph /  6.4km/h 9.0mph /  14.5km/h 93% 0.47in /  11.94mm
18:04 49.0 °F /  9.4 °C 47.1 °F /  8.4 °C 29.86in /  1011.1hPa ENE 3.0mph /  4.8km/h 9.0mph /  14.5km/h 93% 0.46in /  11.68mm
18:09 49.1 °F /  9.5 °C 47.2 °F /  8.4 °C 29.86in /  1011.1hPa ENE 4.0mph /  6.4km/h 12.0mph /  19.3km/h 93% 0.43in /  10.92mm
18:14 49.3 °F /  9.6 °C 47.4 °F /  8.6 °C 29.87in /  1011.4hPa NE 5.0mph /  8km/h 12.0mph /  19.3km/h 93% 0.31in /  7.87mm
18:19 49.3 °F /  9.6 °C 47.4 °F /  8.6 °C 29.86in /  1011.1hPa NE 2.0mph /  3.2km/h 9.0mph /  14.5km/h 93% 0.28in /  7.11mm
18:24 49.3 °F /  9.6 °C 47.4 °F /  8.6 °C 29.85in /  1010.7hPa East 6.0mph /  9.7km/h 10.0mph /  16.1km/h 93% 0.19in /  4.83mm
18:29 49.2 °F /  9.6 °C 47.3 °F /  8.5 °C 29.86in /  1011.1hPa NE 3.0mph /  4.8km/h 9.0mph /  14.5km/h 93% 0.16in /  4.06mm
18:34 49.2 °F /  9.6 °C 47.3 °F /  8.5 °C 29.87in /  1011.4hPa NNW 3.0mph /  4.8km/h 10.0mph /  16.1km/h 93% 0.11in /  2.79mm
18:39 49.2 °F /  9.6 °C 47.3 °F /  8.5 °C 29.85in /  1010.7hPa East 5.0mph /  8km/h 9.0mph /  14.5km/h 93% 0.12in /  3.05mm
18:44 49.3 °F /  9.6 °C 47.4 °F /  8.6 °C 29.85in /  1010.7hPa NE 1.0mph /  1.6km/h 11.0mph /  17.7km/h 93% 0.11in /  2.79mm
18:49 49.4 °F /  9.7 °C 47.5 °F /  8.6 °C 29.84in /  1010.4hPa ENE 4.0mph /  6.4km/h 12.0mph /  19.3km/h 93% 0.10in /  2.54mm
18:54 49.4 °F /  9.7 °C 47.5 °F /  8.6 °C 29.84in /  1010.4hPa East 6.0mph /  9.7km/h 10.0mph /  16.1km/h 93% 0.10in /  2.54mm
18:59 49.6 °F /  9.8 °C 47.7 °F /  8.7 °C 29.85in /  1010.7hPa ENE 4.0mph /  6.4km/h 10.0mph /  16.1km/h 93% 0.10in /  2.54mm
19:04 49.7 °F /  9.8 °C 47.8 °F /  8.8 °C 29.85in /  1010.7hPa NE 3.0mph /  4.8km/h 10.0mph /  16.1km/h 93% 0.10in /  2.54mm
19:09 49.6 °F /  9.8 °C 47.7 °F /  8.7 °C 29.83in /  1010hPa East 5.0mph /  8km/h 9.0mph /  14.5km/h 93% 0.09in /  2.29mm
19:14 49.6 °F /  9.8 °C 47.7 °F /  8.7 °C 29.83in /  1010hPa NE 3.0mph /  4.8km/h 9.0mph /  14.5km/h 93% 0.09in /  2.29mm
19:19 49.7 °F /  9.8 °C 47.8 °F /  8.8 °C 29.84in /  1010.4hPa NE 11.0mph /  17.7km/h 11.0mph /  17.7km/h 93% 0.09in /  2.29mm
19:24 49.6 °F /  9.8 °C 47.7 °F /  8.7 °C 29.83in /  1010hPa NE 5.0mph /  8km/h 11.0mph /  17.7km/h 93% 0.09in /  2.29mm
19:29 49.5 °F /  9.7 °C 47.6 °F /  8.7 °C 29.83in /  1010hPa NE 6.0mph /  9.7km/h 12.0mph /  19.3km/h 93% 0.08in /  2.03mm
19:34 49.4 °F /  9.7 °C 47.5 °F /  8.6 °C 29.83in /  1010hPa NE 4.0mph /  6.4km/h 10.0mph /  16.1km/h 93% 0.07in /  1.78mm
19:39 49.4 °F /  9.7 °C 47.5 °F /  8.6 °C 29.84in /  1010.4hPa NNE 5.0mph /  8km/h 9.0mph /  14.5km/h 93% 0.02in /  0.51mm
19:44 49.0 °F /  9.4 °C 46.8 °F /  8.2 °C 29.86in /  1011.1hPa NNW 16.0mph /  25.7km/h 18.0mph /  29km/h 92% 0.00in /  0mm
19:49 47.7 °F /  8.7 °C 45.2 °F /  7.3 °C 29.83in /  1010hPa NE 6.0mph /  9.7km/h 16.0mph /  25.7km/h 91% 0.00in /  0mm
19:54 47.0 °F /  8.3 °C 44.8 °F /  7.1 °C 29.84in /  1010.4hPa NNE 4.0mph /  6.4km/h 16.0mph /  25.7km/h 92% 0.02in /  0.51mm
19:59 46.8 °F /  8.2 °C 44.6 °F /  7 °C 29.87in /  1011.4hPa North 5.0mph /  8km/h 14.0mph /  22.5km/h 92% 0.05in /  1.27mm
20:04 46.6 °F /  8.1 °C 44.4 °F /  6.9 °C 29.87in /  1011.4hPa NNE 5.0mph /  8km/h 12.0mph /  19.3km/h 92% 0.12in /  3.05mm
20:09 46.6 °F /  8.1 °C 44.7 °F /  7.1 °C 29.86in /  1011.1hPa NE 8.0mph /  12.9km/h 13.0mph /  20.9km/h 93% 0.16in /  4.06mm
20:14 46.5 °F /  8.1 °C 44.6 °F /  7 °C 29.87in /  1011.4hPa NNE 5.0mph /  8km/h 12.0mph /  19.3km/h 93% 0.22in /  5.59mm
20:19 46.6 °F /  8.1 °C 44.7 °F /  7.1 °C 29.95in /  1014.1hPa WSW 4.0mph /  6.4km/h 13.0mph /  20.9km/h 93% 0.24in /  6.1mm
20:24 46.5 °F /  8.1 °C 44.6 °F /  7 °C 29.89in /  1012.1hPa NW 6.0mph /  9.7km/h 13.0mph /  20.9km/h 93% 0.31in /  7.87mm
20:29 46.4 °F /  8 °C 44.5 °F /  6.9 °C 29.89in /  1012.1hPa NE 5.0mph /  8km/h 13.0mph /  20.9km/h 93% 0.35in /  8.89mm
20:34 46.4 °F /  8 °C 44.5 °F /  6.9 °C 29.90in /  1012.4hPa NE 4.0mph /  6.4km/h 13.0mph /  20.9km/h 93% 0.37in /  9.4mm
20:39 46.3 °F /  7.9 °C 44.4 °F /  6.9 °C 29.89in /  1012.1hPa ENE 3.0mph /  4.8km/h 8.0mph /  12.9km/h 93% 0.38in /  9.65mm
20:44 46.3 °F /  7.9 °C 44.4 °F /  6.9 °C 29.89in /  1012.1hPa ENE 7.0mph /  11.3km/h 8.0mph /  12.9km/h 93% 0.39in /  9.91mm
20:49 46.3 °F /  7.9 °C 44.4 °F /  6.9 °C 29.88in /  1011.7hPa East 5.0mph /  8km/h 11.0mph /  17.7km/h 93% 0.41in /  10.41mm
20:54 46.3 °F /  7.9 °C 44.4 °F /  6.9 °C 29.87in /  1011.4hPa ENE 5.0mph /  8km/h 10.0mph /  16.1km/h 93% 0.40in /  10.16mm
20:59 46.5 °F /  8.1 °C 44.6 °F /  7 °C 29.86in /  1011.1hPa ENE 7.0mph /  11.3km/h 11.0mph /  17.7km/h 93% 0.39in /  9.91mm
21:04 46.6 °F /  8.1 °C 44.7 °F /  7.1 °C 29.85in /  1010.7hPa ENE 5.0mph /  8km/h 10.0mph /  16.1km/h 93% 0.32in /  8.13mm
21:09 46.8 °F /  8.2 °C 44.9 °F /  7.2 °C 29.85in /  1010.7hPa East 6.0mph /  9.7km/h 8.0mph /  12.9km/h 93% 0.28in /  7.11mm
21:14 47.0 °F /  8.3 °C 45.1 °F /  7.3 °C 29.84in /  1010.4hPa East 2.0mph /  3.2km/h 7.0mph /  11.3km/h 93% 0.23in /  5.84mm
21:19 47.1 °F /  8.4 °C 45.2 °F /  7.3 °C 29.84in /  1010.4hPa East 3.0mph /  4.8km/h 10.0mph /  16.1km/h 93% 0.22in /  5.59mm
21:24 47.2 °F /  8.4 °C 45.3 °F /  7.4 °C 29.84in /  1010.4hPa ESE 4.0mph /  6.4km/h 10.0mph /  16.1km/h 93% 0.16in /  4.06mm
21:29 47.4 °F /  8.6 °C 45.5 °F /  7.5 °C 29.84in /  1010.4hPa ESE 4.0mph /  6.4km/h 10.0mph /  16.1km/h 93% 0.12in /  3.05mm
21:34 47.4 °F /  8.6 °C 45.5 °F /  7.5 °C 29.83in /  1010hPa ESE 3.0mph /  4.8km/h 9.0mph /  14.5km/h 93% 0.10in /  2.54mm
21:39 47.4 °F /  8.6 °C 45.5 °F /  7.5 °C 29.83in /  1010hPa East 4.0mph /  6.4km/h 13.0mph /  20.9km/h 93% 0.09in /  2.29mm
21:44 47.4 °F /  8.6 °C 45.5 °F /  7.5 °C 29.83in /  1010hPa East 4.0mph /  6.4km/h 13.0mph /  20.9km/h 93% 0.07in /  1.78mm
21:49 47.5 °F /  8.6 °C 45.6 °F /  7.6 °C 29.82in /  1009.7hPa East 3.0mph /  4.8km/h 7.0mph /  11.3km/h 93% 0.06in /  1.52mm
21:54 47.6 °F /  8.7 °C 45.7 °F /  7.6 °C 29.81in /  1009.4hPa ENE 3.0mph /  4.8km/h 8.0mph /  12.9km/h 93% 0.05in /  1.27mm
21:59 47.8 °F /  8.8 °C 45.9 °F /  7.7 °C 29.81in /  1009.4hPa East 3.0mph /  4.8km/h 8.0mph /  12.9km/h 93% 0.03in /  0.76mm
22:04 47.9 °F /  8.8 °C 46.0 °F /  7.8 °C 29.80in /  1009hPa SSE 3.0mph /  4.8km/h 3.0mph /  4.8km/h 93% 0.03in /  0.76mm
22:09 48.0 °F /  8.9 °C 46.1 °F /  7.8 °C 29.80in /  1009hPa Calm   5.0mph /  8km/h 93% 0.03in /  0.76mm
22:14 48.2 °F /  9 °C 46.3 °F /  7.9 °C 29.80in /  1009hPa Calm   2.0mph /  3.2km/h 93% 0.02in /  0.51mm
22:19 48.4 °F /  9.1 °C 46.5 °F /  8.1 °C 29.80in /  1009hPa Calm     93% 0.01in /  0.25mm
22:24 48.6 °F /  9.2 °C 47.0 °F /  8.3 °C 29.80in /  1009hPa Calm     94% 0.00in /  0mm
22:29 48.8 °F /  9.3 °C 47.2 °F /  8.4 °C 29.79in /  1008.7hPa Calm     94% 0.00in /  0mm
22:34 49.0 °F /  9.4 °C 47.1 °F /  8.4 °C 29.80in /  1009hPa Calm     93% 0.00in /  0mm
22:39 49.2 °F /  9.6 °C 47.3 °F /  8.5 °C 29.80in /  1009hPa Calm     93% 0.00in /  0mm
22:44 49.4 °F /  9.7 °C 47.7 °F /  8.7 °C 29.80in /  1009hPa Calm     94% 0.00in /  0mm
22:49 49.4 °F /  9.7 °C 47.7 °F /  8.7 °C 29.80in /  1009hPa Calm     94% 0.00in /  0mm
22:54 49.5 °F /  9.7 °C 47.8 °F /  8.8 °C 29.80in /  1009hPa Calm     94% 0.00in /  0mm
22:59 49.5 °F /  9.7 °C 47.8 °F /  8.8 °C 29.80in /  1009hPa Calm     94% 0.00in /  0mm
23:04 49.4 °F /  9.7 °C 47.7 °F /  8.7 °C 29.80in /  1009hPa Calm     94% 0.00in /  0mm
23:09 49.5 °F /  9.7 °C 47.8 °F /  8.8 °C 29.79in /  1008.7hPa Calm     94% 0.00in /  0mm
23:14 49.6 °F /  9.8 °C 47.9 °F /  8.8 °C 29.79in /  1008.7hPa Calm     94% 0.00in /  0mm
23:19 49.6 °F /  9.8 °C 47.9 °F /  8.8 °C 29.79in /  1008.7hPa Calm     94% 0.00in /  0mm
23:24 49.6 °F /  9.8 °C 47.9 °F /  8.8 °C 29.79in /  1008.7hPa Calm     94% 0.00in /  0mm
23:29 49.6 °F /  9.8 °C 47.9 °F /  8.8 °C 29.79in /  1008.7hPa Calm     94% 0.00in /  0mm
23:34 49.6 °F /  9.8 °C 47.9 °F /  8.8 °C 29.79in /  1008.7hPa Calm     94% 0.00in /  0mm
23:39 49.7 °F /  9.8 °C 48.0 °F /  8.9 °C 29.80in /  1009hPa Calm     94% 0.00in /  0mm
23:44 49.8 °F /  9.9 °C 48.1 °F /  8.9 °C 29.80in /  1009hPa Calm     94% 0.00in /  0mm
23:49 50.0 °F /  10 °C 48.3 °F /  9.1 °C 29.80in /  1009hPa Calm     94% 0.00in /  0mm
23:54 50.3 °F /  10.2 °C 48.6 °F /  9.2 °C 29.79in /  1008.7hPa Calm     94% 0.00in /  0mm
23:59 50.5 °F /  10.3 °C 48.8 °F /  9.3 °C 29.80in /  1009hPa Calm     94% 0.01in /  0.25mm
Buffalo, New York, USA
Compliments of Weather Underground - 2.5 mb